Terminal Aerodrome Forecast
Issued by NWS

Home | Current Version | Previous Version | Text Only | Print | Product List | Glossary Off
Versions: 1 2 3 4 5 6 7 8 9 10 11 12 13 14 15 16 17 18 19 20

697
FTUS43 KTOP 220731 AAA
TAFFOE
TAF AMD
KFOE 220731Z 2208/2306 21008KT P6SM -SHRA VCTS BKN030CB
      TEMPO 2208/2209 02030G40KT 1SM TSRA BKN012CB
     FM221100 36010KT P6SM VCTS SCT012CB BKN050
     FM221500 01012KT P6SM SCT050=

USA.gov is the U.S. government's official web portal to all federal, state and local government web resources and services.